sensor_id;sensor_type;location;lat;lon;timestamp;pressure;altitude;pressure_sealevel;temperature;humidity
72423;BME280;60413;55.658;37.498;2022-11-04T00:01:58;98915.34;;;-2.20;100.00
72423;BME280;60413;55.658;37.498;2022-11-04T00:04:26;98915.34;;;-2.12;100.00
72423;BME280;60413;55.658;37.498;2022-11-04T00:06:53;98874.97;;;-2.46;100.00
72423;BME280;60413;55.658;37.498;2022-11-04T00:09:25;98904.53;;;-2.32;100.00
72423;BME280;60413;55.658;37.498;2022-11-04T00:11:52;98957.47;;;-1.95;100.00
72423;BME280;60413;55.658;37.498;2022-11-04T00:14:37;98896.28;;;-2.35;100.00
72423;BME280;60413;55.658;37.498;2022-11-04T00:17:03;98930.34;;;-2.24;100.00
72423;BME280;60413;55.658;37.498;2022-11-04T00:19:48;98948.25;;;-2.06;100.00
72423;BME280;60413;55.658;37.498;2022-11-04T00:22:32;98954.06;;;-2.03;100.00
72423;BME280;60413;55.658;37.498;2022-11-04T00:25:17;98944.38;;;-2.10;100.00
72423;BME280;60413;55.658;37.498;2022-11-04T00:28:08;98937.44;;;-2.17;100.00
72423;BME280;60413;55.658;37.498;2022-11-04T00:30:58;98945.34;;;-2.11;100.00
72423;BME280;60413;55.658;37.498;2022-11-04T00:33:47;98960.03;;;-1.95;100.00
72423;BME280;60413;55.658;37.498;2022-11-04T00:36:13;98905.47;;;-2.25;100.00
72423;BME280;60413;55.658;37.498;2022-11-04T00:38:42;98941.16;;;-2.12;100.00
72423;BME280;60413;55.658;37.498;2022-11-04T00:41:08;98898.72;;;-2.42;100.00
72423;BME280;60413;55.658;37.498;2022-11-04T00:44:00;98923.41;;;-2.23;100.00
72423;BME280;60413;55.658;37.498;2022-11-04T00:46:28;98888.53;;;-2.44;100.00
72423;BME280;60413;55.658;37.498;2022-11-04T00:48:54;98905.16;;;-2.30;100.00
72423;BME280;60413;55.658;37.498;2022-11-04T00:51:20;98881.28;;;-2.48;100.00
72423;BME280;60413;55.658;37.498;2022-11-04T00:53:47;98929.53;;;-2.16;100.00
72423;BME280;60413;55.658;37.498;2022-11-04T00:56:13;98872.56;;;-2.39;100.00
72423;BME280;60413;55.658;37.498;2022-11-04T00:58:39;98904.03;;;-2.19;100.00
72423;BME280;60413;55.658;37.498;2022-11-04T01:01:09;98890.78;;;-2.32;100.00
72423;BME280;60413;55.658;37.498;2022-11-04T01:03:36;98894.84;;;-2.30;100.00
72423;BME280;60413;55.658;37.498;2022-11-04T01:06:02;98899.53;;;-2.17;100.00
72423;BME280;60413;55.658;37.498;2022-11-04T01:08:28;98929.38;;;-1.98;100.00
72423;BME280;60413;55.658;37.498;2022-11-04T01:11:01;98862.09;;;-2.54;100.00
72423;BME280;60413;55.658;37.498;2022-11-04T01:13:26;98916.28;;;-2.21;100.00
72423;BME280;60413;55.658;37.498;2022-11-04T01:15:52;98877.22;;;-2.51;100.00
72423;BME280;60413;55.658;37.498;2022-11-04T01:18:18;98909.03;;;-2.17;100.00
72423;BME280;60413;55.658;37.498;2022-11-04T01:20:44;98909.84;;;-2.17;100.00
72423;BME280;60413;55.658;37.498;2022-11-04T01:23:10;98905.97;;;-2.13;100.00
72423;BME280;60413;55.658;37.498;2022-11-04T01:25:39;98858.53;;;-2.36;100.00
72423;BME280;60413;55.658;37.498;2022-11-04T01:28:06;98866.91;;;-2.34;100.00
72423;BME280;60413;55.658;37.498;2022-11-04T01:30:32;98882.09;;;-2.07;100.00
72423;BME280;60413;55.658;37.498;2022-11-04T01:32:58;98919.69;;;-1.96;100.00
72423;BME280;60413;55.658;37.498;2022-11-04T01:35:24;98935.66;;;-1.92;100.00
72423;BME280;60413;55.658;37.498;2022-11-04T01:37:49;98876.75;;;-2.21;100.00
72423;BME280;60413;55.658;37.498;2022-11-04T01:40:15;98922.94;;;-1.94;100.00
72423;BME280;60413;55.658;37.498;2022-11-04T01:42:41;98929.84;;;-1.94;100.00
72423;BME280;60413;55.658;37.498;2022-11-04T01:45:13;98869.81;;;-2.29;100.00
72423;BME280;60413;55.658;37.498;2022-11-04T01:47:43;98863.38;;;-2.50;100.00
72423;BME280;60413;55.658;37.498;2022-11-04T01:50:20;98877.91;;;-2.40;100.00
72423;BME280;60413;55.658;37.498;2022-11-04T01:55:19;98894.03;;;-2.38;100.00
72423;BME280;60413;55.658;37.498;2022-11-04T01:57:47;98892.25;;;-2.38;100.00
72423;BME280;60413;55.658;37.498;2022-11-04T02:00:15;98897.56;;;-2.48;100.00
72423;BME280;60413;55.658;37.498;2022-11-04T02:02:53;98896.59;;;-2.47;100.00
72423;BME280;60413;55.658;37.498;2022-11-04T02:05:22;98934.69;;;-2.24;100.00
72423;BME280;60413;55.658;37.498;2022-11-04T02:07:49;98936.31;;;-2.23;100.00
72423;BME280;60413;55.658;37.498;2022-11-04T02:10:18;98897.25;;;-2.45;100.00
72423;BME280;60413;55.658;37.498;2022-11-04T02:12:45;98863.97;;;-2.64;100.00
72423;BME280;60413;55.658;37.498;2022-11-04T02:15:19;98869.47;;;-2.51;100.00
72423;BME280;60413;55.658;37.498;2022-11-04T02:18:15;98912.25;;;-2.32;100.00
72423;BME280;60413;55.658;37.498;2022-11-04T02:23:54;98932.09;;;-2.08;100.00
72423;BME280;60413;55.658;37.498;2022-11-04T02:29:19;98932.78;;;-2.14;100.00
72423;BME280;60413;55.658;37.498;2022-11-04T02:32:02;98931.63;;;-2.11;100.00
72423;BME280;60413;55.658;37.498;2022-11-04T02:37:46;98934.22;;;-2.11;100.00
72423;BME280;60413;55.658;37.498;2022-11-04T02:40:22;98921.13;;;-2.18;100.00
72423;BME280;60413;55.658;37.498;2022-11-04T02:45:46;98928.25;;;-2.12;100.00
72423;BME280;60413;55.658;37.498;2022-11-04T02:48:18;98924.69;;;-2.02;100.00
72423;BME280;60413;55.658;37.498;2022-11-04T02:50:49;98926.94;;;-2.08;100.00
72423;BME280;60413;55.658;37.498;2022-11-04T02:53:30;98931.63;;;-2.11;100.00
72423;BME280;60413;55.658;37.498;2022-11-04T02:55:58;98920.81;;;-2.15;100.00
72423;BME280;60413;55.658;37.498;2022-11-04T02:58:36;98925.19;;;-2.07;100.00
72423;BME280;60413;55.658;37.498;2022-11-04T03:01:05;98909.69;;;-2.24;100.00
72423;BME280;60413;55.658;37.498;2022-11-04T03:03:36;98909.84;;;-2.17;100.00
72423;BME280;60413;55.658;37.498;2022-11-04T03:06:03;98897.41;;;-2.21;100.00
72423;BME280;60413;55.658;37.498;2022-11-04T03:08:33;98924.19;;;-2.22;100.00
72423;BME280;60413;55.658;37.498;2022-11-04T03:11:24;98916.44;;;-2.22;100.00
72423;BME280;60413;55.658;37.498;2022-11-04T03:13:53;98933.25;;;-2.18;100.00
72423;BME280;60413;55.658;37.498;2022-11-04T03:16:27;98915.81;;;-2.25;100.00
72423;BME280;60413;55.658;37.498;2022-11-04T03:19:00;98922.44;;;-2.22;100.00
72423;BME280;60413;55.658;37.498;2022-11-04T03:21:32;98915.50;;;-2.13;100.00
72423;BME280;60413;55.658;37.498;2022-11-04T03:24:00;98920.97;;;-2.25;100.00
72423;BME280;60413;55.658;37.498;2022-11-04T03:26:38;98920.50;;;-2.28;100.00
72423;BME280;60413;55.658;37.498;2022-11-04T03:31:44;98921.78;;;-2.16;100.00
72423;BME280;60413;55.658;37.498;2022-11-04T03:34:13;98900.63;;;-2.36;100.00
72423;BME280;60413;55.658;37.498;2022-11-04T03:36:39;98915.81;;;-2.16;100.00
72423;BME280;60413;55.658;37.498;2022-11-04T03:39:08;98923.88;;;-2.11;100.00
72423;BME280;60413;55.658;37.498;2022-11-04T03:41:47;98917.91;;;-2.12;100.00
72423;BME280;60413;55.658;37.498;2022-11-04T03:44:14;98913.06;;;-2.31;100.00
72423;BME280;60413;55.658;37.498;2022-11-04T03:46:39;98921.44;;;-2.29;100.00
72423;BME280;60413;55.658;37.498;2022-11-04T03:49:05;98922.28;;;-2.29;100.00
72423;BME280;60413;55.658;37.498;2022-11-04T03:51:32;98918.88;;;-2.29;100.00
72423;BME280;60413;55.658;37.498;2022-11-04T03:53:58;98926.13;;;-2.25;100.00
72423;BME280;60413;55.658;37.498;2022-11-04T04:02:22;98930.81;;;-2.36;100.00
72423;BME280;60413;55.658;37.498;2022-11-04T04:05:11;98933.88;;;-2.33;100.00
72423;BME280;60413;55.658;37.498;2022-11-04T04:07:45;98922.25;;;-2.37;100.00
72423;BME280;60413;55.658;37.498;2022-11-04T04:10:16;98917.22;;;-2.55;100.00
72423;BME280;60413;55.658;37.498;2022-11-04T04:13:06;98932.75;;;-2.38;100.00
72423;BME280;60413;55.658;37.498;2022-11-04T04:15:43;98915.16;;;-2.43;100.00
72423;BME280;60413;55.658;37.498;2022-11-04T04:18:14;98929.84;;;-2.35;100.00
72423;BME280;60413;55.658;37.498;2022-11-04T04:20:43;98893.66;;;-2.68;100.00
72423;BME280;60413;55.658;37.498;2022-11-04T04:23:18;98896.56;;;-2.63;100.00
72423;BME280;60413;55.658;37.498;2022-11-04T04:26:07;98946.31;;;-2.28;100.00
72423;BME280;60413;55.658;37.498;2022-11-04T04:28:53;98933.53;;;-2.38;100.00
72423;BME280;60413;55.658;37.498;2022-11-04T04:31:24;98924.81;;;-2.45;100.00
72423;BME280;60413;55.658;37.498;2022-11-04T04:34:10;98938.72;;;-2.30;100.00
72423;BME280;60413;55.658;37.498;2022-11-04T04:36:51;98931.13;;;-2.39;100.00
72423;BME280;60413;55.658;37.498;2022-11-04T04:39:21;98945.34;;;-2.35;100.00
72423;BME280;60413;55.658;37.498;2022-11-04T04:42:06;98944.66;;;-2.46;100.00
72423;BME280;60413;55.658;37.498;2022-11-04T04:45:04;98939.47;;;-2.46;100.00
72423;BME280;60413;55.658;37.498;2022-11-04T04:47:38;98948.88;;;-2.36;100.00
72423;BME280;60413;55.658;37.498;2022-11-04T04:50:05;98951.16;;;-2.25;100.00
72423;BME280;60413;55.658;37.498;2022-11-04T04:52:35;98950.16;;;-2.24;100.00
72423;BME280;60413;55.658;37.498;2022-11-04T04:55:02;98945.66;;;-2.30;100.00
72423;BME280;60413;55.658;37.498;2022-11-04T04:57:28;98899.16;;;-2.63;100.00
72423;BME280;60413;55.658;37.498;2022-11-04T04:59:54;98961.16;;;-2.22;100.00
72423;BME280;60413;55.658;37.498;2022-11-04T05:02:20;98955.47;;;-2.26;100.00
72423;BME280;60413;55.658;37.498;2022-11-04T05:04:45;98951.13;;;-2.33;100.00
72423;BME280;60413;55.658;37.498;2022-11-04T05:07:11;98957.28;;;-2.18;100.00
72423;BME280;60413;55.658;37.498;2022-11-04T05:09:37;98948.22;;;-2.38;100.00
72423;BME280;60413;55.658;37.498;2022-11-04T05:12:03;98948.56;;;-2.33;100.00
72423;BME280;60413;55.658;37.498;2022-11-04T05:14:29;98952.06;;;-2.43;100.00
72423;BME280;60413;55.658;37.498;2022-11-04T05:16:55;98955.50;;;-2.34;100.00
72423;BME280;60413;55.658;37.498;2022-11-04T05:19:21;98949.50;;;-2.34;100.00
72423;BME280;60413;55.658;37.498;2022-11-04T05:21:47;98958.56;;;-2.38;100.00
72423;BME280;60413;55.658;37.498;2022-11-04T05:24:12;98947.41;;;-2.39;100.00
72423;BME280;60413;55.658;37.498;2022-11-04T05:26:38;98951.13;;;-2.33;100.00
72423;BME280;60413;55.658;37.498;2022-11-04T05:29:04;98967.25;;;-2.31;100.00
72423;BME280;60413;55.658;37.498;2022-11-04T05:31:31;98944.50;;;-2.44;100.00
72423;BME280;60413;55.658;37.498;2022-11-04T05:33:56;98951.28;;;-2.35;100.00
72423;BME280;60413;55.658;37.498;2022-11-04T05:36:24;98965.50;;;-2.22;100.00
72423;BME280;60413;55.658;37.498;2022-11-04T05:38:51;98944.03;;;-2.31;100.00
72423;BME280;60413;55.658;37.498;2022-11-04T05:41:18;98959.06;;;-2.18;100.00
72423;BME280;60413;55.658;37.498;2022-11-04T05:43:58;98963.09;;;-2.08;100.00
72423;BME280;60413;55.658;37.498;2022-11-04T05:46:32;98974.75;;;-2.03;100.00
72423;BME280;60413;55.658;37.498;2022-11-04T05:48:58;98972.81;;;-1.93;100.00
72423;BME280;60413;55.658;37.498;2022-11-04T05:51:26;98980.22;;;-1.90;100.00
72423;BME280;60413;55.658;37.498;2022-11-04T05:53:53;98937.25;;;-2.32;100.00
72423;BME280;60413;55.658;37.498;2022-11-04T05:56:19;98987.97;;;-1.98;100.00
72423;BME280;60413;55.658;37.498;2022-11-04T05:58:45;98943.41;;;-2.25;100.00
72423;BME280;60413;55.658;37.498;2022-11-04T06:01:25;98984.25;;;-1.96;100.00
72423;BME280;60413;55.658;37.498;2022-11-04T06:03:52;98968.91;;;-2.06;100.00
72423;BME280;60413;55.658;37.498;2022-11-04T06:06:19;98951.00;;;-2.15;100.00
72423;BME280;60413;55.658;37.498;2022-11-04T06:08:45;98961.97;;;-2.05;100.00
72423;BME280;60413;55.658;37.498;2022-11-04T06:11:12;98944.53;;;-2.19;100.00
72423;BME280;60413;55.658;37.498;2022-11-04T06:13:40;98913.38;;;-2.43;100.00
72423;BME280;60413;55.658;37.498;2022-11-04T06:16:06;98973.44;;;-1.99;100.00
72423;BME280;60413;55.658;37.498;2022-11-04T06:18:35;98963.41;;;-2.02;100.00
72423;BME280;60413;55.658;37.498;2022-11-04T06:23:41;98946.63;;;-2.15;100.00
72423;BME280;60413;55.658;37.498;2022-11-04T06:26:08;99011.25;;;-1.74;100.00
72423;BME280;60413;55.658;37.498;2022-11-04T06:28:35;98918.06;;;-2.13;100.00
72423;BME280;60413;55.658;37.498;2022-11-04T06:31:02;98918.88;;;-2.13;100.00
72423;BME280;60413;55.658;37.498;2022-11-04T06:33:31;98961.47;;;-1.92;100.00
72423;BME280;60413;55.658;37.498;2022-11-04T06:36:01;98941.00;;;-2.02;100.00
72423;BME280;60413;55.658;37.498;2022-11-04T06:38:30;98956.00;;;-2.06;100.00
72423;BME280;60413;55.658;37.498;2022-11-04T06:40:57;98926.63;;;-2.13;100.00
72423;BME280;60413;55.658;37.498;2022-11-04T06:43:23;98949.56;;;-2.01;100.00
72423;BME280;60413;55.658;37.498;2022-11-04T06:45:56;98957.13;;;-2.00;100.00
72423;BME280;60413;55.658;37.498;2022-11-04T06:48:26;98961.31;;;-1.91;100.00
72423;BME280;60413;55.658;37.498;2022-11-04T06:50:58;98962.31;;;-1.92;100.00
72423;BME280;60413;55.658;37.498;2022-11-04T06:53:26;98941.97;;;-2.11;100.00
72423;BME280;60413;55.658;37.498;2022-11-04T06:55:53;98987.00;;;-1.89;100.00
72423;BME280;60413;55.658;37.498;2022-11-04T06:58:21;98963.09;;;-1.99;100.00
72423;BME280;60413;55.658;37.498;2022-11-04T07:00:51;98938.25;;;-2.00;100.00
72423;BME280;60413;55.658;37.498;2022-11-04T07:03:21;98959.88;;;-1.85;100.00
72423;BME280;60413;55.658;37.498;2022-11-04T07:05:47;98997.66;;;-1.59;100.00
72423;BME280;60413;55.658;37.498;2022-11-04T07:08:18;98937.91;;;-1.89;100.00
72423;BME280;60413;55.658;37.498;2022-11-04T07:10:50;98959.38;;;-1.72;100.00
72423;BME280;60413;55.658;37.498;2022-11-04T07:13:19;98969.41;;;-1.69;100.00
72423;BME280;60413;55.658;37.498;2022-11-04T07:15:50;98965.53;;;-1.57;100.00
72423;BME280;60413;55.658;37.498;2022-11-04T07:18:20;99011.50;;;-1.19;100.00
72423;BME280;60413;55.658;37.498;2022-11-04T07:20:56;99022.50;;;-1.25;100.00
72423;BME280;60413;55.658;37.498;2022-11-04T07:23:31;98945.97;;;-1.68;100.00
72423;BME280;60413;55.658;37.498;2022-11-04T07:26:07;98990.19;;;-1.38;100.00
72423;BME280;60413;55.658;37.498;2022-11-04T07:28:43;99013.75;;;-1.08;100.00
72423;BME280;60413;55.658;37.498;2022-11-04T07:31:10;98975.28;;;-1.11;100.00
72423;BME280;60413;55.658;37.498;2022-11-04T07:33:37;98983.78;;;-0.94;100.00
72423;BME280;60413;55.658;37.498;2022-11-04T07:36:12;98936.72;;;-1.37;100.00
72423;BME280;60413;55.658;37.498;2022-11-04T07:38:58;99018.19;;;-0.85;100.00
72423;BME280;60413;55.658;37.498;2022-11-04T07:41:31;98947.66;;;-1.19;100.00
72423;BME280;60413;55.658;37.498;2022-11-04T07:43:57;98947.78;;;-1.12;100.00
72423;BME280;60413;55.658;37.498;2022-11-04T07:46:25;98929.69;;;-1.12;100.00
72423;BME280;60413;55.658;37.498;2022-11-04T07:48:51;98952.28;;;-0.98;100.00
72423;BME280;60413;55.658;37.498;2022-11-04T07:59:09;98986.94;;;-0.76;100.00
72423;BME280;60413;55.658;37.498;2022-11-04T08:01:37;98967.81;;;-0.98;100.00
72423;BME280;60413;55.658;37.498;2022-11-04T08:04:03;99005.88;;;-0.67;100.00
72423;BME280;60413;55.658;37.498;2022-11-04T08:06:32;98974.34;;;-0.79;100.00
72423;BME280;60413;55.658;37.498;2022-11-04T08:09:06;98938.41;;;-1.05;100.00
72423;BME280;60413;55.658;37.498;2022-11-04T08:11:35;98954.72;;;-1.04;100.00
72423;BME280;60413;55.658;37.498;2022-11-04T08:14:05;98986.81;;;-0.82;100.00
72423;BME280;60413;55.658;37.498;2022-11-04T08:16:43;99007.13;;;-0.63;100.00
72423;BME280;60413;55.658;37.498;2022-11-04T08:19:42;98935.53;;;-1.18;100.00
72423;BME280;60413;55.658;37.498;2022-11-04T08:22:09;98965.91;;;-1.12;100.00
72423;BME280;60413;55.658;37.498;2022-11-04T08:24:35;98947.97;;;-1.14;100.00
72423;BME280;60413;55.658;37.498;2022-11-04T08:27:04;98936.97;;;-1.16;100.00
72423;BME280;60413;55.658;37.498;2022-11-04T08:29:33;98938.44;;;-1.13;100.00
72423;BME280;60413;55.658;37.498;2022-11-04T08:31:59;98957.63;;;-0.99;100.00
72423;BME280;60413;55.658;37.498;2022-11-04T08:34:28;99022.19;;;-0.66;100.00
72423;BME280;60413;55.658;37.498;2022-11-04T08:36:54;98974.47;;;-0.72;100.00
72423;BME280;60413;55.658;37.498;2022-11-04T08:39:22;98977.25;;;-0.73;100.00
72423;BME280;60413;55.658;37.498;2022-11-04T08:41:52;98981.78;;;-0.76;100.00
72423;BME280;60413;55.658;37.498;2022-11-04T08:44:26;98962.28;;;-0.86;100.00
72423;BME280;60413;55.658;37.498;2022-11-04T08:46:52;98992.94;;;-0.67;100.00
72423;BME280;60413;55.658;37.498;2022-11-04T08:49:18;99015.38;;;-0.59;100.00
72423;BME280;60413;55.658;37.498;2022-11-04T08:51:44;98949.34;;;-0.95;100.00
72423;BME280;60413;55.658;37.498;2022-11-04T08:54:15;99015.97;;;-0.49;100.00
72423;BME280;60413;55.658;37.498;2022-11-04T08:56:42;98959.34;;;-0.83;100.00
72423;BME280;60413;55.658;37.498;2022-11-04T08:59:09;99008.59;;;-0.60;100.00
72423;BME280;60413;55.658;37.498;2022-11-04T09:01:37;98974.69;;;-0.73;100.00
72423;BME280;60413;55.658;37.498;2022-11-04T09:04:04;98936.06;;;-0.83;100.00
72423;BME280;60413;55.658;37.498;2022-11-04T09:06:35;98978.78;;;-0.56;100.00
72423;BME280;60413;55.658;37.498;2022-11-04T09:09:04;99003.81;;;-0.40;100.00
72423;BME280;60413;55.658;37.498;2022-11-04T09:11:53;99000.97;;;-0.53;100.00
72423;BME280;60413;55.658;37.498;2022-11-04T09:15:13;98969.69;;;-0.83;100.00
72423;BME280;60413;55.658;37.498;2022-11-04T09:17:40;98974.31;;;-0.70;100.00
72423;BME280;60413;55.658;37.498;2022-11-04T09:20:10;98939.50;;;-0.99;100.00
72423;BME280;60413;55.658;37.498;2022-11-04T09:22:37;98941.00;;;-1.05;100.00
72423;BME280;60413;55.658;37.498;2022-11-04T09:25:04;98932.47;;;-1.14;100.00
72423;BME280;60413;55.658;37.498;2022-11-04T09:30:11;98931.56;;;-0.89;100.00
72423;BME280;60413;55.658;37.498;2022-11-04T09:32:42;98931.06;;;-0.85;100.00
72423;BME280;60413;55.658;37.498;2022-11-04T09:35:12;98915.44;;;-1.00;100.00
72423;BME280;60413;55.658;37.498;2022-11-04T09:37:47;98925.06;;;-0.85;100.00
72423;BME280;60413;55.658;37.498;2022-11-04T09:40:16;98938.50;;;-0.90;100.00
72423;BME280;60413;55.658;37.498;2022-11-04T09:46:01;99004.31;;;-0.45;100.00
72423;BME280;60413;55.658;37.498;2022-11-04T09:48:36;98932.00;;;-0.86;100.00
72423;BME280;60413;55.658;37.498;2022-11-04T09:51:11;98931.06;;;-0.85;100.00
72423;BME280;60413;55.658;37.498;2022-11-04T09:53:46;98952.16;;;-0.65;100.00
72423;BME280;60413;55.658;37.498;2022-11-04T09:56:24;98960.78;;;-0.49;100.00
72423;BME280;60413;55.658;37.498;2022-11-04T09:58:53;98957.41;;;-0.50;100.00
72423;BME280;60413;55.658;37.498;2022-11-04T10:01:29;98999.34;;;-0.23;100.00
72423;BME280;60413;55.658;37.498;2022-11-04T10:07:15;98995.13;;;-0.24;100.00
72423;BME280;60413;55.658;37.498;2022-11-04T10:10:42;98956.47;;;-0.57;100.00
72423;BME280;60413;55.658;37.498;2022-11-04T10:21:39;99003.63;;;-0.15;100.00
72423;BME280;60413;55.658;37.498;2022-11-04T10:24:48;98973.81;;;-0.34;100.00
72423;BME280;60413;55.658;37.498;2022-11-04T10:27:22;98931.22;;;-0.55;100.00
72423;BME280;60413;55.658;37.498;2022-11-04T10:33:00;98930.56;;;-0.57;100.00
72423;BME280;60413;55.658;37.498;2022-11-04T10:35:35;98993.22;;;-0.07;100.00
72423;BME280;60413;55.658;37.498;2022-11-04T10:38:21;98939.41;;;-0.75;100.00
72423;BME280;60413;55.658;37.498;2022-11-04T10:40:53;98946.94;;;-0.57;100.00
72423;BME280;60413;55.658;37.498;2022-11-04T10:46:08;98987.06;;;-0.29;100.00
72423;BME280;60413;55.658;37.498;2022-11-04T10:51:41;98976.31;;;-0.18;100.00
72423;BME280;60413;55.658;37.498;2022-11-04T10:54:11;98966.16;;;-0.28;100.00
72423;BME280;60413;55.658;37.498;2022-11-04T10:56:46;98959.47;;;-0.45;100.00
72423;BME280;60413;55.658;37.498;2022-11-04T10:59:30;98921.88;;;-0.64;100.00
72423;BME280;60413;55.658;37.498;2022-11-04T11:02:00;98937.50;;;-0.49;100.00
72423;BME280;60413;55.658;37.498;2022-11-04T11:04:31;98988.09;;;-0.15;100.00
72423;BME280;60413;55.658;37.498;2022-11-04T11:07:04;98991.09;;;-0.27;100.00
72423;BME280;60413;55.658;37.498;2022-11-04T11:14:45;98935.47;;;-0.62;100.00
72423;BME280;60413;55.658;37.498;2022-11-04T11:19:57;98957.25;;;-0.48;100.00
72423;BME280;60413;55.658;37.498;2022-11-04T11:22:34;98995.81;;;-0.07;100.00
72423;BME280;60413;55.658;37.498;2022-11-04T11:25:22;98931.81;;;-0.45;100.00
72423;BME280;60413;55.658;37.498;2022-11-04T11:28:07;98998.47;;;-0.15;100.00
72423;BME280;60413;55.658;37.498;2022-11-04T11:36:07;98934.00;;;-0.33;100.00
72423;BME280;60413;55.658;37.498;2022-11-04T11:39:00;98915.81;;;-0.48;100.00
72423;BME280;60413;55.658;37.498;2022-11-04T11:44:31;98959.59;;;-0.39;100.00
72423;BME280;60413;55.658;37.498;2022-11-04T11:47:06;98998.28;;;-0.14;100.00
72423;BME280;60413;55.658;37.498;2022-11-04T11:49:45;98940.16;;;-0.66;100.00
72423;BME280;60413;55.658;37.498;2022-11-04T11:54:55;98978.13;;;-0.50;100.00
72423;BME280;60413;55.658;37.498;2022-11-04T12:01:41;98975.72;;;-0.60;100.00
72423;BME280;60413;55.658;37.498;2022-11-04T12:04:12;99001.00;;;-0.39;100.00
72423;BME280;60413;55.658;37.498;2022-11-04T12:06:56;99025.69;;;-0.20;100.00
72423;BME280;60413;55.658;37.498;2022-11-04T12:09:37;99013.16;;;-0.39;100.00
72423;BME280;60413;55.658;37.498;2022-11-04T12:21:13;99042.78;;;-0.33;100.00
72423;BME280;60413;55.658;37.498;2022-11-04T12:23:56;98976.34;;;-0.89;100.00
72423;BME280;60413;55.658;37.498;2022-11-04T12:26:53;98988.28;;;-0.80;100.00
72423;BME280;60413;55.658;37.498;2022-11-04T12:29:42;98997.28;;;-0.67;100.00
72423;BME280;60413;55.658;37.498;2022-11-04T12:32:19;99038.44;;;-0.41;100.00
72423;BME280;60413;55.658;37.498;2022-11-04T12:41:26;98964.06;;;-0.87;100.00
72423;BME280;60413;55.658;37.498;2022-11-04T12:57:38;99029.72;;;-0.17;100.00
72423;BME280;60413;55.658;37.498;2022-11-04T13:00:22;98964.78;;;-0.70;100.00
72423;BME280;60413;55.658;37.498;2022-11-04T13:03:10;98974.81;;;-0.67;100.00
72423;BME280;60413;55.658;37.498;2022-11-04T13:06:03;98989.78;;;-0.54;100.00
72423;BME280;60413;55.658;37.498;2022-11-04T13:08:59;98976.91;;;-0.70;100.00
72423;BME280;60413;55.658;37.498;2022-11-04T13:11:36;98989.94;;;-0.56;100.00
72423;BME280;60413;55.658;37.498;2022-11-04T13:14:15;98984.19;;;-0.74;100.00
72423;BME280;60413;55.658;37.498;2022-11-04T13:16:50;99057.94;;;-0.30;100.00
72423;BME280;60413;55.658;37.498;2022-11-04T13:19:38;99009.84;;;-0.56;100.00
72423;BME280;60413;55.658;37.498;2022-11-04T13:22:14;98995.19;;;-0.72;100.00
72423;BME280;60413;55.658;37.498;2022-11-04T13:24:54;98983.09;;;-0.80;100.00
72423;BME280;60413;55.658;37.498;2022-11-04T13:27:29;99017.91;;;-0.51;100.00
72423;BME280;60413;55.658;37.498;2022-11-04T13:30:32;99051.31;;;-0.25;100.00
72423;BME280;60413;55.658;37.498;2022-11-04T13:38:46;99033.63;;;-0.52;100.00
72423;BME280;60413;55.658;37.498;2022-11-04T13:44:41;99063.25;;;-0.24;100.00
72423;BME280;60413;55.658;37.498;2022-11-04T13:47:20;99020.03;;;-0.54;100.00
72423;BME280;60413;55.658;37.498;2022-11-04T13:49:53;99015.31;;;-0.51;100.00
72423;BME280;60413;55.658;37.498;2022-11-04T13:55:55;99076.75;;;-0.05;100.00
72423;BME280;60413;55.658;37.498;2022-11-04T13:58:35;99001.00;;;-0.62;100.00
72423;BME280;60413;55.658;37.498;2022-11-04T14:04:17;99041.81;;;-0.41;100.00
72423;BME280;60413;55.658;37.498;2022-11-04T14:22:48;99091.88;;;-0.17;100.00
72423;BME280;60413;55.658;37.498;2022-11-04T14:25:46;99030.09;;;-0.60;100.00
72423;BME280;60413;55.658;37.498;2022-11-04T14:28:35;99057.84;;;-0.45;100.00
72423;BME280;60413;55.658;37.498;2022-11-04T14:39:37;99035.91;;;-0.58;100.00
72423;BME280;60413;55.658;37.498;2022-11-04T14:47:34;99063.41;;;-0.57;100.00
72423;BME280;60413;55.658;37.498;2022-11-04T14:50:41;99092.13;;;-0.35;100.00
72423;BME280;60413;55.658;37.498;2022-11-04T14:54:19;99037.13;;;-0.77;100.00
72423;BME280;60413;55.658;37.498;2022-11-04T14:57:48;99057.50;;;-0.73;100.00
72423;BME280;60413;55.658;37.498;2022-11-04T15:09:16;99037.59;;;-0.81;100.00
72423;BME280;60413;55.658;37.498;2022-11-04T15:12:23;99118.69;;;-0.41;100.00
72423;BME280;60413;55.658;37.498;2022-11-04T15:16:09;99121.06;;;-0.23;100.00
72423;BME280;60413;55.658;37.498;2022-11-04T15:43:17;99050.88;;;-0.93;100.00
72423;BME280;60413;55.658;37.498;2022-11-04T15:57:50;99086.78;;;-0.81;100.00
72423;BME280;60413;55.658;37.498;2022-11-04T16:01:50;99144.59;;;-0.41;100.00
72423;BME280;60413;55.658;37.498;2022-11-04T16:05:40;99122.34;;;-0.67;100.00
72423;BME280;60413;55.658;37.498;2022-11-04T16:08:40;99118.09;;;-0.60;100.00
72423;BME280;60413;55.658;37.498;2022-11-04T16:15:40;99165.91;;;-0.31;100.00
72423;BME280;60413;55.658;37.498;2022-11-04T16:19:20;99075.13;;;-0.85;100.00
72423;BME280;60413;55.658;37.498;2022-11-04T16:22:29;99155.56;;;-0.31;100.00
72423;BME280;60413;55.658;37.498;2022-11-04T16:25:53;99095.16;;;-0.79;100.00
72423;BME280;60413;55.658;37.498;2022-11-04T16:28:51;99138.16;;;-0.53;100.00
72423;BME280;60413;55.658;37.498;2022-11-04T16:36:35;99099.41;;;-0.86;100.00
72423;BME280;60413;55.658;37.498;2022-11-04T16:42:36;99179.03;;;-0.32;100.00
72423;BME280;60413;55.658;37.498;2022-11-04T16:45:45;99109.41;;;-0.83;100.00
72423;BME280;60413;55.658;37.498;2022-11-04T16:49:04;99112.31;;;-0.78;100.00
72423;BME280;60413;55.658;37.498;2022-11-04T16:59:33;99150.88;;;-0.44;100.00
72423;BME280;60413;55.658;37.498;2022-11-04T17:06:55;99131.03;;;-0.51;100.00
72423;BME280;60413;55.658;37.498;2022-11-04T17:14:10;99113.75;;;-0.67;100.00
72423;BME280;60413;55.658;37.498;2022-11-04T17:17:20;99128.75;;;-0.54;100.00